Camp Douglas, WI (54637)

09:11 CDT le 30 Mars 2015 (GMT -0500)
Volk | | Change Station
CLOSE
Current Station
Aéroport
Location: Volk,
Altitude: 909 ft
Stations météo à proximité

Alt. 909 ft 43.94 °N, 90.25 °W | Updated 13 minutes ago

Scattered Clouds
Nuages épars
45 ° F
Paraît 41 ° F
N
6
Vent Variable Vent de OSO

Aujourd'hui
Haut(e) -- | Bas -- ° F
--% Risque de précip.
Hier
Haut(e) -- | Bas -- ° F
Precip. -- pouce
6:46 AM 7:25 PM
Lune gibbeuse croissante, 80% visible
Pression 30.02 pouce
Visibilité 10.0 Miles terrestres
Nuages Nuages épars 8000 ft
Refroidissement éolien 41 ° F
Point de rosée 34 ° F
Humidité 66%
Précipitations 0.00 pouce
Profondeur de la couche neigeuse Non disponible.
UV 1 sur 12
Pollen 2.30 sur 12
Qualité de l'air Non disponible.
Flu Activity Non disponible.
METAR KVOK 301358Z 25005KT 10SM SCT080 07/01 A2998 RMK AO2A SLP164

More Conditions Fewer Conditions

Pression 30.02 pouce
Visibilité 10.0 Miles terrestres
Nuages Nuages épars 8000 ft
Refroidissement éolien 41 ° F
Point de rosée 34 ° F
Humidité 66%
Précipitations 0.00 pouce
Profondeur de la couche neigeuse Non disponible.
UV 1 sur 12
Pollen 2.30 sur 12
Qualité de l'air Non disponible.
Flu Activity Non disponible.
METAR KVOK 301358Z 25005KT 10SM SCT080 07/01 A2998 RMK AO2A SLP164

More Conditions Fewer Conditions

10-Day Weather Forecast

Almanac

Astronomie

Mar. 30, 2015 Lever Coucher
Temps réel
Crépuscule civil
Crépuscule nautique
Crépuscule astronomique
Lune
Durée de lumière visible
Longueur du jour
Tomorrow will be .
, % of the Moon is Illuminated

Extrêmes aujourd'hui

State Highs State Lows

Community

WunderPhotos

Upload Photos

1,809,502 Photos téléchargées !

WunderBlogs® & News

Nearby

Qualité de l'air

  Qualité de l'air Indice de la qualité de l'air Polluant
Not available.

Épaisseur de neige

Station Depth Altitude

Activité sismique

Ville Distance Mag. Time & Date
Minimum magnitude displayed is 2.5.

Températures des eaux côtières

Lieu Température

Stations

Stations météo à proximité

Emplacement de la station Température Refroidissement éolien Point de rosée Humidité Vent Precip. Alt. Mise à jour Type